sensor_id;sensor_type;location;lat;lon;timestamp;pressure;altitude;pressure_sealevel;temperature;humidity
47763;BME280;33526;42.690;23.322;2023-03-22T00:04:07;94725.44;;;9.02;100.00
47763;BME280;33526;42.690;23.322;2023-03-22T00:09:23;94724.66;;;9.01;100.00
47763;BME280;33526;42.690;23.322;2023-03-22T00:17:39;94725.75;;;9.13;100.00
47763;BME280;33526;42.690;23.322;2023-03-22T00:20:25;94728.03;;;9.24;100.00
47763;BME280;33526;42.690;23.322;2023-03-22T00:23:33;94720.31;;;9.18;98.39
47763;BME280;33526;42.690;23.322;2023-03-22T00:26:43;94723.09;;;9.18;98.02
47763;BME280;33526;42.690;23.322;2023-03-22T00:29:50;94717.19;;;9.26;97.79
47763;BME280;33526;42.690;23.322;2023-03-22T00:32:43;94721.50;;;9.27;97.89
47763;BME280;33526;42.690;23.322;2023-03-22T00:35:24;94720.75;;;9.26;98.46
47763;BME280;33526;42.690;23.322;2023-03-22T00:41:20;94709.44;;;9.30;96.81
47763;BME280;33526;42.690;23.322;2023-03-22T00:44:00;94707.56;;;9.27;97.83
47763;BME280;33526;42.690;23.322;2023-03-22T00:47:09;94709.19;;;9.09;98.28
47763;BME280;33526;42.690;23.322;2023-03-22T00:50:21;94711.34;;;9.05;97.99
47763;BME280;33526;42.690;23.322;2023-03-22T01:02:57;94700.81;;;8.91;100.00
47763;BME280;33526;42.690;23.322;2023-03-22T01:09:04;94700.50;;;8.98;100.00
47763;BME280;33526;42.690;23.322;2023-03-22T01:12:10;94704.81;;;9.08;100.00
47763;BME280;33526;42.690;23.322;2023-03-22T01:22:01;94695.25;;;8.91;100.00
47763;BME280;33526;42.690;23.322;2023-03-22T01:24:48;94686.56;;;8.89;100.00
47763;BME280;33526;42.690;23.322;2023-03-22T01:28:08;94696.19;;;8.88;100.00
47763;BME280;33526;42.690;23.322;2023-03-22T01:31:13;94682.88;;;8.83;100.00
47763;BME280;33526;42.690;23.322;2023-03-22T01:34:20;94690.16;;;8.71;99.90
47763;BME280;33526;42.690;23.322;2023-03-22T01:36:46;94683.34;;;8.72;99.48
47763;BME280;33526;42.690;23.322;2023-03-22T01:39:12;94681.66;;;8.74;100.00
47763;BME280;33526;42.690;23.322;2023-03-22T01:41:40;94688.78;;;8.75;99.98
47763;BME280;33526;42.690;23.322;2023-03-22T01:44:16;94683.06;;;8.70;99.06
47763;BME280;33526;42.690;23.322;2023-03-22T01:47:08;94676.22;;;8.71;100.00
47763;BME280;33526;42.690;23.322;2023-03-22T01:49:57;94684.88;;;8.73;100.00
47763;BME280;33526;42.690;23.322;2023-03-22T01:52:48;94673.91;;;8.69;100.00
47763;BME280;33526;42.690;23.322;2023-03-22T01:55:41;94682.56;;;8.71;100.00
47763;BME280;33526;42.690;23.322;2023-03-22T01:58:25;94683.06;;;8.70;100.00
47763;BME280;33526;42.690;23.322;2023-03-22T02:00:54;94675.47;;;8.70;100.00
47763;BME280;33526;42.690;23.322;2023-03-22T02:03:24;94687.38;;;8.71;100.00
47763;BME280;33526;42.690;23.322;2023-03-22T02:05:56;94679.78;;;8.71;100.00
47763;BME280;33526;42.690;23.322;2023-03-22T02:08:23;94676.22;;;8.71;100.00
47763;BME280;33526;42.690;23.322;2023-03-22T02:10:50;94676.69;;;8.69;100.00
47763;BME280;33526;42.690;23.322;2023-03-22T02:16:03;94678.53;;;8.82;100.00
47763;BME280;33526;42.690;23.322;2023-03-22T02:27:07;94679.47;;;8.69;100.00
47763;BME280;33526;42.690;23.322;2023-03-22T02:29:45;94686.31;;;8.68;100.00
47763;BME280;33526;42.690;23.322;2023-03-22T02:44:16;94694.03;;;8.64;100.00
47763;BME280;33526;42.690;23.322;2023-03-22T02:51:51;94698.84;;;8.64;100.00
47763;BME280;33526;42.690;23.322;2023-03-22T03:00:28;94703.78;;;8.59;100.00
47763;BME280;33526;42.690;23.322;2023-03-22T03:03:19;94695.13;;;8.57;100.00
47763;BME280;33526;42.690;23.322;2023-03-22T03:05:54;94692.81;;;8.56;100.00
47763;BME280;33526;42.690;23.322;2023-03-22T03:08:21;94700.72;;;8.57;100.00
47763;BME280;33526;42.690;23.322;2023-03-22T03:10:47;94699.91;;;8.57;100.00
47763;BME280;33526;42.690;23.322;2023-03-22T03:13:14;94702.41;;;8.55;100.00
47763;BME280;33526;42.690;23.322;2023-03-22T03:15:41;94698.38;;;8.56;100.00
47763;BME280;33526;42.690;23.322;2023-03-22T03:23:50;94704.53;;;8.78;100.00
47763;BME280;33526;42.690;23.322;2023-03-22T03:34:38;94708.28;;;8.85;100.00
47763;BME280;33526;42.690;23.322;2023-03-22T03:37:16;94712.44;;;8.80;100.00
47763;BME280;33526;42.690;23.322;2023-03-22T03:39:54;94717.25;;;8.79;100.00
47763;BME280;33526;42.690;23.322;2023-03-22T03:42:24;94717.56;;;8.91;100.00
47763;BME280;33526;42.690;23.322;2023-03-22T03:44:54;94715.69;;;8.97;100.00
47763;BME280;33526;42.690;23.322;2023-03-22T03:47:21;94710.44;;;8.99;99.33
47763;BME280;33526;42.690;23.322;2023-03-22T03:49:50;94713.84;;;8.94;99.11
47763;BME280;33526;42.690;23.322;2023-03-22T03:52:15;94717.25;;;8.79;99.54
47763;BME280;33526;42.690;23.322;2023-03-22T03:54:43;94716.50;;;8.79;99.33
47763;BME280;33526;42.690;23.322;2023-03-22T03:57:09;94719.59;;;8.72;99.39
47763;BME280;33526;42.690;23.322;2023-03-22T03:59:36;94719.75;;;8.77;99.92
47763;BME280;33526;42.690;23.322;2023-03-22T04:02:04;94721.91;;;8.73;99.39
47763;BME280;33526;42.690;23.322;2023-03-22T04:04:30;94722.22;;;8.85;99.67
47763;BME280;33526;42.690;23.322;2023-03-22T04:07:01;94725.00;;;8.85;99.44
47763;BME280;33526;42.690;23.322;2023-03-22T04:09:28;94730.09;;;8.95;99.22
47763;BME280;33526;42.690;23.322;2023-03-22T04:11:55;94727.94;;;8.90;99.12
47763;BME280;33526;42.690;23.322;2023-03-22T04:14:21;94732.25;;;8.82;99.91
47763;BME280;33526;42.690;23.322;2023-03-22T04:16:48;94732.44;;;8.88;100.00
47763;BME280;33526;42.690;23.322;2023-03-22T04:19:14;94734.59;;;8.74;100.00
47763;BME280;33526;42.690;23.322;2023-03-22T04:21:40;94731.19;;;8.70;100.00
47763;BME280;33526;42.690;23.322;2023-03-22T04:24:09;94731.03;;;8.74;99.78
47763;BME280;33526;42.690;23.322;2023-03-22T04:26:35;94725.78;;;8.67;100.00
47763;BME280;33526;42.690;23.322;2023-03-22T04:29:03;94734.59;;;8.65;99.31
47763;BME280;33526;42.690;23.322;2023-03-22T04:31:29;94724.38;;;8.62;98.75
47763;BME280;33526;42.690;23.322;2023-03-22T04:33:54;94729.78;;;8.66;99.00
47763;BME280;33526;42.690;23.322;2023-03-22T04:36:21;94739.56;;;8.70;98.48
47763;BME280;33526;42.690;23.322;2023-03-22T04:38:46;94734.00;;;8.70;98.45
47763;BME280;33526;42.690;23.322;2023-03-22T04:41:13;94739.88;;;8.72;98.12
47763;BME280;33526;42.690;23.322;2023-03-22T04:43:38;94736.78;;;8.70;99.04
47763;BME280;33526;42.690;23.322;2023-03-22T04:46:07;94743.56;;;8.69;98.38
47763;BME280;33526;42.690;23.322;2023-03-22T04:48:36;94744.84;;;8.68;98.92
47763;BME280;33526;42.690;23.322;2023-03-22T04:51:05;94740.47;;;8.67;98.26
47763;BME280;33526;42.690;23.322;2023-03-22T04:53:40;94748.06;;;8.67;98.35
47763;BME280;33526;42.690;23.322;2023-03-22T04:56:12;94755.50;;;8.60;99.11
47763;BME280;33526;42.690;23.322;2023-03-22T04:58:39;94755.34;;;8.64;98.13
47763;BME280;33526;42.690;23.322;2023-03-22T05:01:05;94749.94;;;8.70;99.47
47763;BME280;33526;42.690;23.322;2023-03-22T05:03:34;94762.16;;;8.72;100.00
47763;BME280;33526;42.690;23.322;2023-03-22T05:06:05;94758.31;;;8.70;99.46
47763;BME280;33526;42.690;23.322;2023-03-22T05:08:35;94753.81;;;8.72;98.87
47763;BME280;33526;42.690;23.322;2023-03-22T05:11:06;94762.47;;;8.84;99.45
47763;BME280;33526;42.690;23.322;2023-03-22T05:13:33;94757.84;;;8.80;98.48
47763;BME280;33526;42.690;23.322;2023-03-22T05:16:04;94764.66;;;8.79;97.63
47763;BME280;33526;42.690;23.322;2023-03-22T05:18:30;94764.03;;;8.85;98.01
47763;BME280;33526;42.690;23.322;2023-03-22T05:21:11;94778.44;;;8.83;96.57
47763;BME280;33526;42.690;23.322;2023-03-22T05:23:43;94772.69;;;8.87;96.13
47763;BME280;33526;42.690;23.322;2023-03-22T05:26:25;94779.19;;;8.84;96.80
47763;BME280;33526;42.690;23.322;2023-03-22T06:25:39;94813.25;;;9.34;91.37
47763;BME280;33526;42.690;23.322;2023-03-22T07:09:05;94846.00;;;10.46;84.40
47763;BME280;33526;42.690;23.322;2023-03-22T07:11:34;94847.34;;;10.51;84.24
47763;BME280;33526;42.690;23.322;2023-03-22T07:13:59;94850.38;;;10.62;82.24
47763;BME280;33526;42.690;23.322;2023-03-22T07:16:25;94855.03;;;10.65;82.28
47763;BME280;33526;42.690;23.322;2023-03-22T07:19:00;94858.00;;;10.62;83.16
47763;BME280;33526;42.690;23.322;2023-03-22T07:21:43;94855.97;;;10.71;82.68
47763;BME280;33526;42.690;23.322;2023-03-22T07:24:10;94856.03;;;10.53;84.66
47763;BME280;33526;42.690;23.322;2023-03-22T07:26:38;94863.53;;;10.47;83.73
47763;BME280;33526;42.690;23.322;2023-03-22T07:29:14;94860.78;;;10.38;83.55
47763;BME280;33526;42.690;23.322;2023-03-22T10:17:44;94939.84;;;10.71;84.33
47763;BME280;33526;42.690;23.322;2023-03-22T10:25:34;94937.06;;;10.62;82.68
47763;BME280;33526;42.690;23.322;2023-03-22T11:49:49;94913.47;;;10.63;83.01
47763;BME280;33526;42.690;23.322;2023-03-22T11:55:04;94905.53;;;10.62;82.85
47763;BME280;33526;42.690;23.322;2023-03-22T11:57:29;94917.25;;;10.51;82.51
47763;BME280;33526;42.690;23.322;2023-03-22T12:00:13;94918.94;;;10.58;82.78
47763;BME280;33526;42.690;23.322;2023-03-22T13:04:58;94898.44;;;11.87;73.78
47763;BME280;33526;42.690;23.322;2023-03-22T14:21:12;94894.72;;;12.20;71.10
47763;BME280;33526;42.690;23.322;2023-03-22T14:23:44;94890.38;;;12.34;71.10
47763;BME280;33526;42.690;23.322;2023-03-22T14:35:24;94894.91;;;12.16;71.05
47763;BME280;33526;42.690;23.322;2023-03-22T15:06:21;94890.47;;;11.95;71.07
47763;BME280;33526;42.690;23.322;2023-03-22T15:12:47;94898.19;;;12.00;71.98
47763;BME280;33526;42.690;23.322;2023-03-22T15:15:13;94900.69;;;12.13;70.67
47763;BME280;33526;42.690;23.322;2023-03-22T15:17:45;94892.56;;;12.30;71.26
47763;BME280;33526;42.690;23.322;2023-03-22T15:20:47;94894.91;;;12.16;69.70
47763;BME280;33526;42.690;23.322;2023-03-22T15:23:17;94892.78;;;12.11;70.23
47763;BME280;33526;42.690;23.322;2023-03-22T15:25:44;94893.25;;;12.10;69.83
47763;BME280;33526;42.690;23.322;2023-03-22T15:28:11;94895.00;;;12.07;70.82
47763;BME280;33526;42.690;23.322;2023-03-22T15:30:49;94895.88;;;11.98;70.56
47763;BME280;33526;42.690;23.322;2023-03-22T15:35:47;94894.28;;;11.82;70.62
47763;BME280;33526;42.690;23.322;2023-03-22T15:38:12;94888.88;;;11.79;70.89
47763;BME280;33526;42.690;23.322;2023-03-22T15:40:40;94896.59;;;11.69;72.12
47763;BME280;33526;42.690;23.322;2023-03-22T15:43:13;94897.53;;;11.66;71.32
47763;BME280;33526;42.690;23.322;2023-03-22T15:45:42;94897.16;;;11.73;72.30
47763;BME280;33526;42.690;23.322;2023-03-22T15:48:11;94885.38;;;11.69;72.05
47763;BME280;33526;42.690;23.322;2023-03-22T15:50:41;94890.47;;;11.56;70.14
47763;BME280;33526;42.690;23.322;2023-03-22T15:53:23;94889.22;;;11.57;70.77
47763;BME280;33526;42.690;23.322;2023-03-22T15:55:51;94892.31;;;11.59;71.66
47763;BME280;33526;42.690;23.322;2023-03-22T15:58:27;94892.69;;;11.52;72.89
47763;BME280;33526;42.690;23.322;2023-03-22T16:00:53;94895.97;;;11.50;72.21
47763;BME280;33526;42.690;23.322;2023-03-22T16:03:20;94912.28;;;11.52;71.91
47763;BME280;33526;42.690;23.322;2023-03-22T16:05:45;94905.16;;;11.51;72.61
47763;BME280;33526;42.690;23.322;2023-03-22T16:08:17;94900.22;;;11.45;72.70
47763;BME280;33526;42.690;23.322;2023-03-22T16:10:43;94898.66;;;11.44;72.80
47763;BME280;33526;42.690;23.322;2023-03-22T16:13:17;94896.69;;;11.36;72.79
47763;BME280;33526;42.690;23.322;2023-03-22T16:15:51;94906.53;;;11.31;71.27
47763;BME280;33526;42.690;23.322;2023-03-22T16:18:20;94911.84;;;11.29;71.08
47763;BME280;33526;42.690;23.322;2023-03-22T16:20:48;94918.09;;;11.24;72.53
47763;BME280;33526;42.690;23.322;2023-03-22T16:23:21;94919.63;;;11.25;74.06
47763;BME280;33526;42.690;23.322;2023-03-22T16:25:47;94917.81;;;11.22;73.36
47763;BME280;33526;42.690;23.322;2023-03-22T16:28:13;94911.88;;;11.20;72.93
47763;BME280;33526;42.690;23.322;2023-03-22T16:30:40;94915.00;;;11.22;73.17
47763;BME280;33526;42.690;23.322;2023-03-22T16:33:14;94917.47;;;11.20;72.75
47763;BME280;33526;42.690;23.322;2023-03-22T16:35:43;94921.13;;;11.11;72.93
47763;BME280;33526;42.690;23.322;2023-03-22T16:38:12;94929.03;;;11.13;73.22
47763;BME280;33526;42.690;23.322;2023-03-22T16:40:43;94928.28;;;11.12;74.01
47763;BME280;33526;42.690;23.322;2023-03-22T16:43:09;94926.91;;;11.07;74.24
47763;BME280;33526;42.690;23.322;2023-03-22T16:45:36;94932.84;;;11.00;74.66
47763;BME280;33526;42.690;23.322;2023-03-22T16:48:02;94936.00;;;10.93;73.71
47763;BME280;33526;42.690;23.322;2023-03-22T16:50:28;94935.38;;;10.89;74.55
47763;BME280;33526;42.690;23.322;2023-03-22T16:52:56;94933.84;;;10.88;74.86
47763;BME280;33526;42.690;23.322;2023-03-22T16:55:36;94941.78;;;10.80;75.48
47763;BME280;33526;42.690;23.322;2023-03-22T16:58:02;94948.06;;;10.75;74.97
47763;BME280;33526;42.690;23.322;2023-03-22T17:00:31;94950.97;;;10.81;74.92
47763;BME280;33526;42.690;23.322;2023-03-22T17:03:01;94952.22;;;10.80;75.20
47763;BME280;33526;42.690;23.322;2023-03-22T17:05:32;94957.50;;;10.78;75.65
47763;BME280;33526;42.690;23.322;2023-03-22T17:07:58;94954.13;;;10.74;76.70
47763;BME280;33526;42.690;23.322;2023-03-22T17:10:33;94960.00;;;10.76;78.72
47763;BME280;33526;42.690;23.322;2023-03-22T17:13:09;94953.78;;;10.81;80.13
47763;BME280;33526;42.690;23.322;2023-03-22T17:15:45;94964.66;;;10.79;80.34
47763;BME280;33526;42.690;23.322;2023-03-22T17:18:45;94961.28;;;10.65;82.06
47763;BME280;33526;42.690;23.322;2023-03-22T17:21:14;94957.91;;;10.61;82.59
47763;BME280;33526;42.690;23.322;2023-03-22T17:23:40;94961.91;;;10.60;83.55
47763;BME280;33526;42.690;23.322;2023-03-22T17:26:06;94962.56;;;10.55;83.65
47763;BME280;33526;42.690;23.322;2023-03-22T17:28:31;94967.84;;;10.53;84.15
47763;BME280;33526;42.690;23.322;2023-03-22T17:30:58;94977.81;;;10.45;84.68
47763;BME280;33526;42.690;23.322;2023-03-22T17:33:24;94981.56;;;10.42;85.06
47763;BME280;33526;42.690;23.322;2023-03-22T17:35:51;94991.81;;;10.17;87.48
47763;BME280;33526;42.690;23.322;2023-03-22T17:38:31;94995.75;;;10.01;88.60
47763;BME280;33526;42.690;23.322;2023-03-22T17:40:56;94995.09;;;9.97;89.28
47763;BME280;33526;42.690;23.322;2023-03-22T17:43:21;94990.31;;;9.98;90.22
47763;BME280;33526;42.690;23.322;2023-03-22T17:51:14;95001.00;;;9.90;90.76
47763;BME280;33526;42.690;23.322;2023-03-22T18:02:30;95012.94;;;9.81;93.32
47763;BME280;33526;42.690;23.322;2023-03-22T18:10:12;95024.88;;;9.63;94.05
47763;BME280;33526;42.690;23.322;2023-03-22T18:15:39;95013.13;;;9.96;94.02
47763;BME280;33526;42.690;23.322;2023-03-22T18:40:04;95024.25;;;9.50;94.82
47763;BME280;33526;42.690;23.322;2023-03-22T19:16:35;95020.13;;;9.14;92.25
47763;BME280;33526;42.690;23.322;2023-03-22T19:19:02;95027.75;;;9.13;92.50
47763;BME280;33526;42.690;23.322;2023-03-22T19:21:32;95024.03;;;9.16;92.97
47763;BME280;33526;42.690;23.322;2023-03-22T19:46:04;95013.75;;;8.95;93.56
47763;BME280;33526;42.690;23.322;2023-03-22T19:48:48;95015.75;;;8.94;94.00
47763;BME280;33526;42.690;23.322;2023-03-22T19:51:16;95010.31;;;8.91;94.26
47763;BME280;33526;42.690;23.322;2023-03-22T19:53:43;95011.25;;;8.88;94.55
47763;BME280;33526;42.690;23.322;2023-03-22T19:56:32;95014.16;;;8.84;94.44
47763;BME280;33526;42.690;23.322;2023-03-22T19:59:33;95003.78;;;8.85;94.63
47763;BME280;33526;42.690;23.322;2023-03-22T20:04:56;95011.00;;;8.73;95.61
47763;BME280;33526;42.690;23.322;2023-03-22T20:07:31;95007.41;;;8.63;95.19
47763;BME280;33526;42.690;23.322;2023-03-22T20:10:00;95017.59;;;8.57;95.61
47763;BME280;33526;42.690;23.322;2023-03-22T20:12:35;94978.75;;;8.31;95.63
47763;BME280;33526;42.690;23.322;2023-03-22T20:15:01;95020.34;;;8.48;97.13
47763;BME280;33526;42.690;23.322;2023-03-22T20:47:18;95027.59;;;8.23;100.00
47763;BME280;33526;42.690;23.322;2023-03-22T20:49:44;95030.31;;;8.14;100.00
47763;BME280;33526;42.690;23.322;2023-03-22T20:52:17;95024.75;;;8.14;100.00
47763;BME280;33526;42.690;23.322;2023-03-22T20:55:10;95021.88;;;8.04;100.00
47763;BME280;33526;42.690;23.322;2023-03-22T20:57:42;95027.72;;;7.97;100.00
47763;BME280;33526;42.690;23.322;2023-03-22T21:00:19;95023.06;;;7.94;100.00
47763;BME280;33526;42.690;23.322;2023-03-22T21:06:19;95027.34;;;7.86;100.00
47763;BME280;33526;42.690;23.322;2023-03-22T21:12:00;95043.25;;;7.85;100.00
47763;BME280;33526;42.690;23.322;2023-03-22T21:20:13;95033.22;;;7.88;100.00
47763;BME280;33526;42.690;23.322;2023-03-22T21:22:51;95033.22;;;7.88;100.00
47763;BME280;33526;42.690;23.322;2023-03-22T22:25:50;95043.38;;;7.60;99.84
47763;BME280;33526;42.690;23.322;2023-03-22T22:28:22;95051.16;;;7.52;100.00
47763;BME280;33526;42.690;23.322;2023-03-22T22:30:49;95051.97;;;7.40;100.00
47763;BME280;33526;42.690;23.322;2023-03-22T22:33:43;95058.19;;;7.44;100.00
47763;BME280;33526;42.690;23.322;2023-03-22T22:36:18;95052.41;;;7.51;100.00
47763;BME280;33526;42.690;23.322;2023-03-22T22:39:14;95056.06;;;7.48;100.00
47763;BME280;33526;42.690;23.322;2023-03-22T22:42:04;95048.84;;;7.38;100.00
47763;BME280;33526;42.690;23.322;2023-03-22T22:44:52;95048.44;;;7.26;100.00
47763;BME280;33526;42.690;23.322;2023-03-22T22:47:23;95043.00;;;7.23;100.00
47763;BME280;33526;42.690;23.322;2023-03-22T22:49:50;95052.09;;;7.23;100.00
47763;BME280;33526;42.690;23.322;2023-03-22T22:52:33;95046.56;;;7.11;100.00
47763;BME280;33526;42.690;23.322;2023-03-22T23:03:08;95050.13;;;7.11;100.00
47763;BME280;33526;42.690;23.322;2023-03-22T23:05:38;95052.25;;;7.07;100.00
47763;BME280;33526;42.690;23.322;2023-03-22T23:08:04;95054.69;;;7.05;100.00
47763;BME280;33526;42.690;23.322;2023-03-22T23:10:32;95044.13;;;7.00;100.00
47763;BME280;33526;42.690;23.322;2023-03-22T23:13:00;95050.25;;;6.95;100.00
47763;BME280;33526;42.690;23.322;2023-03-22T23:15:32;95042.00;;;6.91;100.00
47763;BME280;33526;42.690;23.322;2023-03-22T23:17:58;95042.91;;;6.88;100.00
47763;BME280;33526;42.690;23.322;2023-03-22T23:20:26;95038.34;;;6.94;100.00
47763;BME280;33526;42.690;23.322;2023-03-22T23:49:32;95040.81;;;6.92;98.78
47763;BME280;33526;42.690;23.322;2023-03-22T23:51:58;95044.91;;;6.87;98.91
47763;BME280;33526;42.690;23.322;2023-03-22T23:54:23;95042.03;;;6.78;99.32
47763;BME280;33526;42.690;23.322;2023-03-22T23:56:49;95041.03;;;6.72;99.92
47763;BME280;33526;42.690;23.322;2023-03-22T23:59:19;95044.78;;;6.65;100.00
